sensor_id;sensor_type;location;lat;lon;timestamp;pressure;altitude;pressure_sealevel;temperature;humidity
58367;BME280;57745;42.524;12.052;2023-08-21T00:00:04;96713.66;;;31.18;34.39
58367;BME280;57745;42.524;12.052;2023-08-21T00:02:30;96707.09;;;31.07;34.35
58367;BME280;57745;42.524;12.052;2023-08-21T00:04:55;96702.44;;;31.02;34.68
58367;BME280;57745;42.524;12.052;2023-08-21T00:07:21;96705.41;;;31.04;34.59
58367;BME280;57745;42.524;12.052;2023-08-21T00:09:47;96701.47;;;30.92;35.07
58367;BME280;57745;42.524;12.052;2023-08-21T00:12:12;96704.28;;;31.00;35.00
58367;BME280;57745;42.524;12.052;2023-08-21T00:14:38;96697.81;;;31.13;34.56
58367;BME280;57745;42.524;12.052;2023-08-21T00:17:03;96703.69;;;30.86;35.45
58367;BME280;57745;42.524;12.052;2023-08-21T00:19:29;96700.03;;;31.22;35.10
58367;BME280;57745;42.524;12.052;2023-08-21T00:21:55;96705.78;;;31.08;35.25
58367;BME280;57745;42.524;12.052;2023-08-21T00:24:20;96709.91;;;31.00;34.79
58367;BME280;57745;42.524;12.052;2023-08-21T00:26:46;96704.66;;;31.04;34.88
58367;BME280;57745;42.524;12.052;2023-08-21T00:29:11;96709.56;;;31.11;34.80
58367;BME280;57745;42.524;12.052;2023-08-21T00:31:37;96712.84;;;30.94;35.53
58367;BME280;57745;42.524;12.052;2023-08-21T00:34:02;96702.59;;;31.04;34.80
58367;BME280;57745;42.524;12.052;2023-08-21T00:36:28;96701.72;;;31.10;35.05
58367;BME280;57745;42.524;12.052;2023-08-21T00:38:53;96697.00;;;31.04;34.92
58367;BME280;57745;42.524;12.052;2023-08-21T00:41:18;96705.22;;;31.02;35.71
58367;BME280;57745;42.524;12.052;2023-08-21T00:43:44;96696.63;;;31.00;35.49
58367;BME280;57745;42.524;12.052;2023-08-21T00:46:10;96703.91;;;30.96;35.54
58367;BME280;57745;42.524;12.052;2023-08-21T00:48:36;96703.50;;;30.84;35.87
58367;BME280;57745;42.524;12.052;2023-08-21T00:51:03;96704.84;;;30.91;36.13
58367;BME280;57745;42.524;12.052;2023-08-21T00:53:29;96715.47;;;30.92;36.69
58367;BME280;57745;42.524;12.052;2023-08-21T00:55:55;96701.47;;;30.92;36.32
58367;BME280;57745;42.524;12.052;2023-08-21T00:58:20;96702.47;;;31.10;36.19
58367;BME280;57745;42.524;12.052;2023-08-21T01:00:48;96704.91;;;31.14;35.97
58367;BME280;57745;42.524;12.052;2023-08-21T01:03:15;96701.84;;;30.96;36.63
58367;BME280;57745;42.524;12.052;2023-08-21T01:05:41;96699.97;;;30.91;36.84
58367;BME280;57745;42.524;12.052;2023-08-21T01:08:14;96696.84;;;31.02;36.74
58367;BME280;57745;42.524;12.052;2023-08-21T01:10:58;96699.25;;;30.98;36.93
58367;BME280;57745;42.524;12.052;2023-08-21T01:16:13;96691.25;;;31.10;36.47
58367;BME280;57745;42.524;12.052;2023-08-21T01:18:39;96698.31;;;31.03;36.86
58367;BME280;57745;42.524;12.052;2023-08-21T01:21:06;96698.50;;;30.98;36.87
58367;BME280;57745;42.524;12.052;2023-08-21T01:23:36;96698.66;;;30.85;37.26
58367;BME280;57745;42.524;12.052;2023-08-21T01:26:03;96692.16;;;30.90;37.02
58367;BME280;57745;42.524;12.052;2023-08-21T01:28:29;96694.75;;;30.88;37.15
58367;BME280;57745;42.524;12.052;2023-08-21T01:31:21;96693.81;;;30.85;37.46
58367;BME280;57745;42.524;12.052;2023-08-21T01:33:53;96696.75;;;30.80;37.21
58367;BME280;57745;42.524;12.052;2023-08-21T01:36:20;96690.25;;;30.85;36.81
58367;BME280;57745;42.524;12.052;2023-08-21T01:38:46;96698.66;;;30.77;37.61
58367;BME280;57745;42.524;12.052;2023-08-21T01:41:12;96687.06;;;30.73;37.44
58367;BME280;57745;42.524;12.052;2023-08-21T01:43:37;96699.59;;;30.87;36.84
58367;BME280;57745;42.524;12.052;2023-08-21T01:46:03;96705.34;;;30.82;37.06
58367;BME280;57745;42.524;12.052;2023-08-21T01:48:29;96696.94;;;30.74;37.36
58367;BME280;57745;42.524;12.052;2023-08-21T01:50:54;96700.75;;;30.99;37.00
58367;BME280;57745;42.524;12.052;2023-08-21T01:53:20;96696.81;;;30.87;37.14
58367;BME280;57745;42.524;12.052;2023-08-21T01:55:45;96700.16;;;30.93;37.28
58367;BME280;57745;42.524;12.052;2023-08-21T01:58:10;96710.06;;;30.87;36.90
58367;BME280;57745;42.524;12.052;2023-08-21T02:00:36;96700.66;;;30.69;37.45
58367;BME280;57745;42.524;12.052;2023-08-21T02:03:01;96694.91;;;30.82;37.54
58367;BME280;57745;42.524;12.052;2023-08-21T02:05:27;96696.53;;;30.62;37.42
58367;BME280;57745;42.524;12.052;2023-08-21T02:07:52;96697.69;;;30.75;37.65
58367;BME280;57745;42.524;12.052;2023-08-21T02:10:18;96700.28;;;30.65;38.03
58367;BME280;57745;42.524;12.052;2023-08-21T02:12:43;96701.44;;;30.77;37.68
58367;BME280;57745;42.524;12.052;2023-08-21T02:15:09;96695.09;;;30.84;37.83
58367;BME280;57745;42.524;12.052;2023-08-21T02:17:35;96684.25;;;30.73;37.73
58367;BME280;57745;42.524;12.052;2023-08-21T02:20:00;96677.91;;;30.65;37.75
58367;BME280;57745;42.524;12.052;2023-08-21T02:22:26;96686.66;;;30.69;37.53
58367;BME280;57745;42.524;12.052;2023-08-21T02:24:53;96681.84;;;30.77;37.56
58367;BME280;57745;42.524;12.052;2023-08-21T02:27:18;96683.31;;;30.63;38.17
58367;BME280;57745;42.524;12.052;2023-08-21T02:29:44;96670.22;;;30.58;38.33
58367;BME280;57745;42.524;12.052;2023-08-21T02:32:09;96683.38;;;30.42;38.15
58367;BME280;57745;42.524;12.052;2023-08-21T02:34:35;96674.69;;;30.53;38.65
58367;BME280;57745;42.524;12.052;2023-08-21T02:37:01;96679.47;;;30.45;38.51
58367;BME280;57745;42.524;12.052;2023-08-21T02:39:27;96675.09;;;30.73;38.35
58367;BME280;57745;42.524;12.052;2023-08-21T02:41:53;96675.81;;;30.58;38.62
58367;BME280;57745;42.524;12.052;2023-08-21T02:44:18;96676.72;;;30.53;38.33
58367;BME280;57745;42.524;12.052;2023-08-21T02:46:43;96669.50;;;30.65;38.44
58367;BME280;57745;42.524;12.052;2023-08-21T02:49:09;96671.94;;;30.76;38.48
58367;BME280;57745;42.524;12.052;2023-08-21T02:51:34;96674.38;;;30.80;37.82
58367;BME280;57745;42.524;12.052;2023-08-21T02:54:00;96677.66;;;30.55;38.53
58367;BME280;57745;42.524;12.052;2023-08-21T02:56:25;96676.56;;;30.58;38.16
58367;BME280;57745;42.524;12.052;2023-08-21T02:58:50;96670.41;;;30.67;38.64
58367;BME280;57745;42.524;12.052;2023-08-21T03:01:16;96668.34;;;30.60;38.64
58367;BME280;57745;42.524;12.052;2023-08-21T03:03:42;96663.78;;;30.42;38.52
58367;BME280;57745;42.524;12.052;2023-08-21T03:06:07;96663.53;;;30.68;38.24
58367;BME280;57745;42.524;12.052;2023-08-21T03:08:33;96668.75;;;30.64;38.92
58367;BME280;57745;42.524;12.052;2023-08-21T03:10:58;96664.81;;;30.60;38.25
58367;BME280;57745;42.524;12.052;2023-08-21T03:13:23;96657.44;;;30.42;38.98
58367;BME280;57745;42.524;12.052;2023-08-21T03:15:49;96665.41;;;30.66;38.36
58367;BME280;57745;42.524;12.052;2023-08-21T03:18:15;96659.22;;;30.60;38.23
58367;BME280;57745;42.524;12.052;2023-08-21T03:20:45;96667.81;;;30.62;38.79
58367;BME280;57745;42.524;12.052;2023-08-21T03:23:11;96669.84;;;30.54;38.60
58367;BME280;57745;42.524;12.052;2023-08-21T03:25:36;96671.34;;;30.62;38.83
58367;BME280;57745;42.524;12.052;2023-08-21T03:28:02;96675.44;;;30.54;38.51
58367;BME280;57745;42.524;12.052;2023-08-21T03:30:27;96674.53;;;30.66;38.69
58367;BME280;57745;42.524;12.052;2023-08-21T03:32:53;96672.41;;;30.52;38.51
58367;BME280;57745;42.524;12.052;2023-08-21T03:35:18;96680.06;;;30.51;38.54
58367;BME280;57745;42.524;12.052;2023-08-21T03:37:44;96674.72;;;30.68;37.95
58367;BME280;57745;42.524;12.052;2023-08-21T03:40:09;96676.97;;;30.70;38.14
58367;BME280;57745;42.524;12.052;2023-08-21T03:42:35;96665.97;;;30.72;38.38
58367;BME280;57745;42.524;12.052;2023-08-21T03:45:01;96671.72;;;30.66;38.31
58367;BME280;57745;42.524;12.052;2023-08-21T03:47:29;96672.06;;;30.55;38.56
58367;BME280;57745;42.524;12.052;2023-08-21T03:49:54;96675.81;;;30.58;38.84
58367;BME280;57745;42.524;12.052;2023-08-21T03:52:19;96667.94;;;30.49;38.78
58367;BME280;57745;42.524;12.052;2023-08-21T03:54:45;96662.59;;;30.66;38.58
58367;BME280;57745;42.524;12.052;2023-08-21T03:57:10;96674.22;;;30.42;39.36
58367;BME280;57745;42.524;12.052;2023-08-21T03:59:36;96670.41;;;30.60;38.64
58367;BME280;57745;42.524;12.052;2023-08-21T04:02:02;96667.53;;;30.45;38.74
58367;BME280;57745;42.524;12.052;2023-08-21T04:04:27;96668.00;;;30.64;38.63
58367;BME280;57745;42.524;12.052;2023-08-21T04:06:52;96673.66;;;30.35;39.56
58367;BME280;57745;42.524;12.052;2023-08-21T04:09:18;96675.78;;;30.50;39.06
58367;BME280;57745;42.524;12.052;2023-08-21T04:11:43;96685.50;;;30.57;38.78
58367;BME280;57745;42.524;12.052;2023-08-21T04:14:09;96685.94;;;30.32;39.29
58367;BME280;57745;42.524;12.052;2023-08-21T04:16:34;96690.75;;;30.60;39.26
58367;BME280;57745;42.524;12.052;2023-08-21T04:19:00;96695.50;;;30.45;39.49
58367;BME280;57745;42.524;12.052;2023-08-21T04:21:25;96691.31;;;30.59;38.83
58367;BME280;57745;42.524;12.052;2023-08-21T04:23:51;96698.94;;;30.58;39.30
58367;BME280;57745;42.524;12.052;2023-08-21T04:26:16;96699.88;;;30.53;39.51
58367;BME280;57745;42.524;12.052;2023-08-21T04:28:42;96701.50;;;30.49;39.20
58367;BME280;57745;42.524;12.052;2023-08-21T04:31:07;96699.09;;;30.53;39.28
58367;BME280;57745;42.524;12.052;2023-08-21T04:33:33;96704.66;;;30.45;39.25
58367;BME280;57745;42.524;12.052;2023-08-21T04:36:00;96711.94;;;30.48;39.26
58367;BME280;57745;42.524;12.052;2023-08-21T04:38:25;96712.00;;;30.20;40.09
58367;BME280;57745;42.524;12.052;2023-08-21T04:40:51;96718.84;;;30.47;39.64
58367;BME280;57745;42.524;12.052;2023-08-21T04:43:16;96712.69;;;30.41;39.35
58367;BME280;57745;42.524;12.052;2023-08-21T04:45:49;96711.59;;;30.52;39.69
58367;BME280;57745;42.524;12.052;2023-08-21T04:48:15;96717.34;;;30.46;39.75
58367;BME280;57745;42.524;12.052;2023-08-21T04:50:41;96717.00;;;30.50;39.66
58367;BME280;57745;42.524;12.052;2023-08-21T04:53:06;96713.41;;;30.42;39.67
58367;BME280;57745;42.524;12.052;2023-08-21T04:55:32;96724.78;;;30.36;39.88
58367;BME280;57745;42.524;12.052;2023-08-21T04:57:57;96720.22;;;30.54;39.67
58367;BME280;57745;42.524;12.052;2023-08-21T05:00:22;96725.41;;;30.50;39.37
58367;BME280;57745;42.524;12.052;2023-08-21T05:02:48;96722.84;;;30.59;39.43
58367;BME280;57745;42.524;12.052;2023-08-21T05:05:14;96731.69;;;30.43;39.35
58367;BME280;57745;42.524;12.052;2023-08-21T05:07:39;96739.38;;;30.50;39.31
58367;BME280;57745;42.524;12.052;2023-08-21T05:10:05;96737.66;;;30.39;39.91
58367;BME280;57745;42.524;12.052;2023-08-21T05:12:31;96732.63;;;30.45;39.97
58367;BME280;57745;42.524;12.052;2023-08-21T05:14:56;96742.38;;;30.52;39.21
58367;BME280;57745;42.524;12.052;2023-08-21T05:17:22;96738.84;;;30.51;39.78
58367;BME280;57745;42.524;12.052;2023-08-21T05:19:47;96742.44;;;30.59;39.70
58367;BME280;57745;42.524;12.052;2023-08-21T05:22:12;96750.25;;;30.53;39.42
58367;BME280;57745;42.524;12.052;2023-08-21T05:24:38;96759.09;;;30.36;39.79
58367;BME280;57745;42.524;12.052;2023-08-21T05:27:03;96747.84;;;30.57;39.32
58367;BME280;57745;42.524;12.052;2023-08-21T05:29:29;96756.06;;;30.27;39.85
58367;BME280;57745;42.524;12.052;2023-08-21T05:31:55;96749.59;;;30.40;40.19
58367;BME280;57745;42.524;12.052;2023-08-21T05:34:20;96754.47;;;30.39;39.97
58367;BME280;57745;42.524;12.052;2023-08-21T05:36:46;96759.72;;;30.50;39.93
58367;BME280;57745;42.524;12.052;2023-08-21T05:39:11;96759.69;;;30.43;40.05
58367;BME280;57745;42.524;12.052;2023-08-21T05:41:37;96763.22;;;30.43;39.71
58367;BME280;57745;42.524;12.052;2023-08-21T05:44:02;96769.03;;;30.45;39.99
58367;BME280;57745;42.524;12.052;2023-08-21T05:46:29;96774.63;;;30.45;40.07
58367;BME280;57745;42.524;12.052;2023-08-21T05:48:54;96770.88;;;30.43;39.73
58367;BME280;57745;42.524;12.052;2023-08-21T05:51:20;96773.50;;;30.41;40.14
58367;BME280;57745;42.524;12.052;2023-08-21T05:53:45;96774.97;;;30.42;39.80
58367;BME280;57745;42.524;12.052;2023-08-21T05:56:10;96777.28;;;30.51;40.00
58367;BME280;57745;42.524;12.052;2023-08-21T05:58:36;96784.31;;;30.44;39.77
58367;BME280;57745;42.524;12.052;2023-08-21T06:01:01;96786.22;;;30.49;39.73
58367;BME280;57745;42.524;12.052;2023-08-21T06:03:27;96790.78;;;30.60;39.78
58367;BME280;57745;42.524;12.052;2023-08-21T06:05:52;96789.66;;;30.63;39.41
58367;BME280;57745;42.524;12.052;2023-08-21T06:08:17;96788.81;;;30.47;39.80
58367;BME280;57745;42.524;12.052;2023-08-21T06:10:43;96788.19;;;30.69;39.97
58367;BME280;57745;42.524;12.052;2023-08-21T06:13:09;96789.28;;;30.59;39.76
58367;BME280;57745;42.524;12.052;2023-08-21T06:15:34;96785.94;;;30.68;39.83
58367;BME280;57745;42.524;12.052;2023-08-21T06:18:00;96782.22;;;30.65;39.63
58367;BME280;57745;42.524;12.052;2023-08-21T06:20:25;96782.56;;;30.62;39.75
58367;BME280;57745;42.524;12.052;2023-08-21T06:22:51;96779.84;;;30.85;39.22
58367;BME280;57745;42.524;12.052;2023-08-21T06:25:16;96783.00;;;30.74;39.71
58367;BME280;57745;42.524;12.052;2023-08-21T06:27:44;96784.66;;;30.69;39.36
58367;BME280;57745;42.524;12.052;2023-08-21T06:30:10;96778.91;;;30.75;39.81
58367;BME280;57745;42.524;12.052;2023-08-21T06:32:35;96786.69;;;30.68;40.05
58367;BME280;57745;42.524;12.052;2023-08-21T06:35:01;96781.50;;;30.73;39.49
58367;BME280;57745;42.524;12.052;2023-08-21T06:37:26;96780.56;;;30.42;40.07
58367;BME280;57745;42.524;12.052;2023-08-21T06:39:52;96787.66;;;30.79;39.72
58367;BME280;57745;42.524;12.052;2023-08-21T06:42:17;96791.25;;;30.51;40.32
58367;BME280;57745;42.524;12.052;2023-08-21T06:44:43;96788.25;;;30.77;39.85
58367;BME280;57745;42.524;12.052;2023-08-21T06:47:08;96784.16;;;30.86;39.71
58367;BME280;57745;42.524;12.052;2023-08-21T06:49:34;96792.91;;;30.82;40.03
58367;BME280;57745;42.524;12.052;2023-08-21T06:51:59;96794.22;;;30.81;39.93
58367;BME280;57745;42.524;12.052;2023-08-21T06:54:25;96795.34;;;30.78;39.58
58367;BME280;57745;42.524;12.052;2023-08-21T06:56:50;96793.41;;;30.65;40.20
58367;BME280;57745;42.524;12.052;2023-08-21T06:59:16;96791.63;;;30.83;39.63
58367;BME280;57745;42.524;12.052;2023-08-21T07:01:41;96797.81;;;30.89;39.48
58367;BME280;57745;42.524;12.052;2023-08-21T07:04:06;96784.88;;;30.79;39.81
58367;BME280;57745;42.524;12.052;2023-08-21T07:06:32;96780.06;;;30.94;40.25
58367;BME280;57745;42.524;12.052;2023-08-21T07:08:57;96798.97;;;31.01;39.65
58367;BME280;57745;42.524;12.052;2023-08-21T07:11:23;96793.31;;;30.86;40.38
58367;BME280;57745;42.524;12.052;2023-08-21T07:13:49;96792.91;;;30.82;40.49
58367;BME280;57745;42.524;12.052;2023-08-21T07:16:14;96796.31;;;30.96;39.79
58367;BME280;57745;42.524;12.052;2023-08-21T07:18:40;96796.47;;;30.83;40.18
58367;BME280;57745;42.524;12.052;2023-08-21T07:21:05;96802.84;;;30.91;40.09
58367;BME280;57745;42.524;12.052;2023-08-21T07:23:31;96799.31;;;30.90;40.30
58367;BME280;57745;42.524;12.052;2023-08-21T07:25:58;96796.13;;;30.94;39.92
58367;BME280;57745;42.524;12.052;2023-08-21T07:28:24;96803.75;;;30.86;39.99
58367;BME280;57745;42.524;12.052;2023-08-21T07:30:59;96803.91;;;30.80;40.68
58367;BME280;57745;42.524;12.052;2023-08-21T07:33:25;96796.81;;;31.15;39.40
58367;BME280;57745;42.524;12.052;2023-08-21T07:35:58;96795.84;;;31.13;39.76
58367;BME280;57745;42.524;12.052;2023-08-21T07:38:24;96800.72;;;31.20;39.49
58367;BME280;57745;42.524;12.052;2023-08-21T07:40:50;96804.44;;;31.15;39.58
58367;BME280;57745;42.524;12.052;2023-08-21T07:43:16;96802.78;;;31.19;39.87
58367;BME280;57745;42.524;12.052;2023-08-21T07:45:41;96794.56;;;31.29;39.34
58367;BME280;57745;42.524;12.052;2023-08-21T07:48:06;96801.09;;;31.31;39.18
58367;BME280;57745;42.524;12.052;2023-08-21T07:50:32;96802.41;;;31.15;39.49
58367;BME280;57745;42.524;12.052;2023-08-21T07:52:57;96803.91;;;31.24;39.16
58367;BME280;57745;42.524;12.052;2023-08-21T07:55:23;96809.13;;;31.20;39.30
58367;BME280;57745;42.524;12.052;2023-08-21T07:57:48;96825.72;;;31.18;39.39
58367;BME280;57745;42.524;12.052;2023-08-21T08:00:14;96825.22;;;31.27;39.78
58367;BME280;57745;42.524;12.052;2023-08-21T08:02:39;96822.06;;;31.38;39.54
58367;BME280;57745;42.524;12.052;2023-08-21T08:05:05;96815.88;;;31.32;39.44
58367;BME280;57745;42.524;12.052;2023-08-21T08:07:31;96817.00;;;31.36;39.62
58367;BME280;57745;42.524;12.052;2023-08-21T08:09:56;96813.47;;;31.43;39.54
58367;BME280;57745;42.524;12.052;2023-08-21T08:12:22;96824.63;;;31.28;39.69
58367;BME280;57745;42.524;12.052;2023-08-21T08:14:47;96814.59;;;31.48;39.25
58367;BME280;57745;42.524;12.052;2023-08-21T08:17:13;96819.63;;;31.34;39.64
58367;BME280;57745;42.524;12.052;2023-08-21T08:19:38;96823.94;;;31.43;39.11
58367;BME280;57745;42.524;12.052;2023-08-21T08:22:04;96819.09;;;31.51;39.26
58367;BME280;57745;42.524;12.052;2023-08-21T08:24:29;96818.72;;;31.47;38.73
58367;BME280;57745;42.524;12.052;2023-08-21T08:26:55;96812.75;;;31.51;38.82
58367;BME280;57745;42.524;12.052;2023-08-21T08:29:20;96814.22;;;31.44;39.47
58367;BME280;57745;42.524;12.052;2023-08-21T08:31:46;96822.06;;;31.46;39.21
58367;BME280;57745;42.524;12.052;2023-08-21T08:34:11;96821.50;;;31.47;39.07
58367;BME280;57745;42.524;12.052;2023-08-21T08:36:37;96819.84;;;31.52;38.85
58367;BME280;57745;42.524;12.052;2023-08-21T08:39:02;96819.09;;;31.51;39.58
58367;BME280;57745;42.524;12.052;2023-08-21T08:41:56;96814.25;;;31.67;39.26
58367;BME280;57745;42.524;12.052;2023-08-21T08:44:24;96820.97;;;31.56;39.23
58367;BME280;57745;42.524;12.052;2023-08-21T08:46:52;96815.00;;;31.52;39.28
58367;BME280;57745;42.524;12.052;2023-08-21T08:49:17;96811.59;;;31.54;38.91
58367;BME280;57745;42.524;12.052;2023-08-21T08:51:43;96812.00;;;31.58;39.21
58367;BME280;57745;42.524;12.052;2023-08-21T08:54:10;96814.41;;;31.46;39.64
58367;BME280;57745;42.524;12.052;2023-08-21T08:56:37;96820.59;;;31.60;38.74
58367;BME280;57745;42.524;12.052;2023-08-21T08:59:05;96813.66;;;31.53;39.63
58367;BME280;57745;42.524;12.052;2023-08-21T09:01:31;96815.16;;;31.54;39.09
58367;BME280;57745;42.524;12.052;2023-08-21T09:03:56;96812.75;;;31.58;38.49
58367;BME280;57745;42.524;12.052;2023-08-21T09:06:22;96816.09;;;31.57;39.05
58367;BME280;57745;42.524;12.052;2023-08-21T09:08:57;96820.22;;;31.56;38.84
58367;BME280;57745;42.524;12.052;2023-08-21T09:11:23;96816.84;;;31.57;38.91
58367;BME280;57745;42.524;12.052;2023-08-21T09:13:50;96817.25;;;31.61;38.94
58367;BME280;57745;42.524;12.052;2023-08-21T09:16:20;96813.50;;;31.66;38.90
58367;BME280;57745;42.524;12.052;2023-08-21T09:18:50;96808.81;;;31.61;39.29
58367;BME280;57745;42.524;12.052;2023-08-21T09:21:17;96812.75;;;31.66;38.77
58367;BME280;57745;42.524;12.052;2023-08-21T09:23:43;96809.41;;;31.67;39.34
58367;BME280;57745;42.524;12.052;2023-08-21T09:26:09;96817.63;;;31.65;38.95
58367;BME280;57745;42.524;12.052;2023-08-21T09:28:34;96812.94;;;31.60;38.92
58367;BME280;57745;42.524;12.052;2023-08-21T09:31:00;96808.28;;;31.70;38.24
58367;BME280;57745;42.524;12.052;2023-08-21T09:33:27;96820.63;;;31.67;38.55
58367;BME280;57745;42.524;12.052;2023-08-21T09:35:53;96812.97;;;31.68;38.00
58367;BME280;57745;42.524;12.052;2023-08-21T09:38:20;96806.06;;;31.84;38.50
58367;BME280;57745;42.524;12.052;2023-08-21T09:40:53;96808.69;;;31.74;38.42
58367;BME280;57745;42.524;12.052;2023-08-21T09:43:20;96804.19;;;31.79;38.04
58367;BME280;57745;42.524;12.052;2023-08-21T09:45:48;96806.22;;;31.78;38.37
58367;BME280;57745;42.524;12.052;2023-08-21T09:48:14;96805.31;;;31.76;38.21
58367;BME280;57745;42.524;12.052;2023-08-21T09:50:40;96799.31;;;31.80;38.05
58367;BME280;57745;42.524;12.052;2023-08-21T09:53:09;96800.06;;;31.95;37.65
58367;BME280;57745;42.524;12.052;2023-08-21T09:55:35;96788.50;;;31.76;37.69
58367;BME280;57745;42.524;12.052;2023-08-21T09:58:02;96791.66;;;31.88;37.77
58367;BME280;57745;42.524;12.052;2023-08-21T10:00:36;96787.38;;;31.87;37.59
58367;BME280;57745;42.524;12.052;2023-08-21T10:03:07;96790.34;;;31.89;37.94
58367;BME280;57745;42.524;12.052;2023-08-21T10:05:36;96791.84;;;31.97;37.55
58367;BME280;57745;42.524;12.052;2023-08-21T10:08:04;96794.81;;;31.92;36.80
58367;BME280;57745;42.524;12.052;2023-08-21T10:10:32;96789.22;;;31.92;37.22
58367;BME280;57745;42.524;12.052;2023-08-21T10:12:59;96797.81;;;31.94;36.70
58367;BME280;57745;42.524;12.052;2023-08-21T10:15:29;96786.25;;;31.90;36.89
58367;BME280;57745;42.524;12.052;2023-08-21T10:17:55;96778.56;;;31.90;36.80
58367;BME280;57745;42.524;12.052;2023-08-21T10:20:25;96781.19;;;31.96;36.75
58367;BME280;57745;42.524;12.052;2023-08-21T10:22:55;96774.63;;;31.93;36.31
58367;BME280;57745;42.524;12.052;2023-08-21T10:25:26;96775.19;;;31.92;36.21
58367;BME280;57745;42.524;12.052;2023-08-21T10:27:57;96782.88;;;31.99;35.79
58367;BME280;57745;42.524;12.052;2023-08-21T10:30:25;96770.13;;;32.05;35.83
58367;BME280;57745;42.524;12.052;2023-08-21T10:32:53;96770.34;;;32.00;36.16
58367;BME280;57745;42.524;12.052;2023-08-21T10:35:21;96769.59;;;31.99;36.01
58367;BME280;57745;42.524;12.052;2023-08-21T10:40:32;96767.72;;;32.02;36.01
58367;BME280;57745;42.524;12.052;2023-08-21T10:42:58;96763.97;;;32.07;35.95
58367;BME280;57745;42.524;12.052;2023-08-21T10:45:24;96763.78;;;32.12;35.62
58367;BME280;57745;42.524;12.052;2023-08-21T10:47:49;96755.72;;;32.09;34.72
58367;BME280;57745;42.524;12.052;2023-08-21T10:50:16;96761.72;;;32.21;34.89
58367;BME280;57745;42.524;12.052;2023-08-21T10:52:43;96768.22;;;32.16;34.29
58367;BME280;57745;42.524;12.052;2023-08-21T10:55:11;96755.53;;;32.15;33.97
58367;BME280;57745;42.524;12.052;2023-08-21T10:57:37;96751.25;;;32.21;33.61
58367;BME280;57745;42.524;12.052;2023-08-21T11:00:11;96758.88;;;32.28;33.95
58367;BME280;57745;42.524;12.052;2023-08-21T11:02:39;96765.63;;;32.18;33.87
58367;BME280;57745;42.524;12.052;2023-08-21T11:05:06;96762.47;;;32.21;34.45
58367;BME280;57745;42.524;12.052;2023-08-21T11:07:41;96755.91;;;32.26;34.68
58367;BME280;57745;42.524;12.052;2023-08-21T11:10:11;96758.34;;;32.22;33.93
58367;BME280;57745;42.524;12.052;2023-08-21T11:12:39;96760.03;;;32.25;34.03
58367;BME280;57745;42.524;12.052;2023-08-21T11:15:12;96756.47;;;32.25;33.74
58367;BME280;57745;42.524;12.052;2023-08-21T11:17:38;96759.47;;;32.19;33.86
58367;BME280;57745;42.524;12.052;2023-08-21T11:20:04;96752.50;;;32.28;33.70
58367;BME280;57745;42.524;12.052;2023-08-21T11:22:31;96757.94;;;32.33;33.22
58367;BME280;57745;42.524;12.052;2023-08-21T11:24:57;96749.16;;;32.29;33.20
58367;BME280;57745;42.524;12.052;2023-08-21T11:27:24;96747.66;;;32.28;33.26
58367;BME280;57745;42.524;12.052;2023-08-21T11:29:50;96754.00;;;32.36;33.24
58367;BME280;57745;42.524;12.052;2023-08-21T11:32:19;96752.69;;;32.37;33.18
58367;BME280;57745;42.524;12.052;2023-08-21T11:34:51;96756.63;;;32.34;33.29
58367;BME280;57745;42.524;12.052;2023-08-21T11:37:18;96750.41;;;32.43;33.20
58367;BME280;57745;42.524;12.052;2023-08-21T11:39:51;96745.91;;;32.48;33.27
58367;BME280;57745;42.524;12.052;2023-08-21T11:42:18;96748.59;;;32.38;33.49
58367;BME280;57745;42.524;12.052;2023-08-21T11:44:53;96748.41;;;32.36;33.44
58367;BME280;57745;42.524;12.052;2023-08-21T11:47:21;96750.22;;;32.41;33.30
58367;BME280;57745;42.524;12.052;2023-08-21T11:49:47;96736.94;;;32.50;33.06
58367;BME280;57745;42.524;12.052;2023-08-21T11:52:20;96741.00;;;32.56;33.07
58367;BME280;57745;42.524;12.052;2023-08-21T11:54:51;96741.75;;;32.57;33.36
58367;BME280;57745;42.524;12.052;2023-08-21T11:57:17;96739.53;;;32.55;33.56
58367;BME280;57745;42.524;12.052;2023-08-21T11:59:45;96737.69;;;32.50;33.45
58367;BME280;57745;42.524;12.052;2023-08-21T12:02:17;96743.88;;;32.48;33.47
58367;BME280;57745;42.524;12.052;2023-08-21T12:04:43;96743.06;;;32.56;33.36
58367;BME280;57745;42.524;12.052;2023-08-21T12:07:09;96749.25;;;32.54;33.04
58367;BME280;57745;42.524;12.052;2023-08-21T12:09:35;96736.38;;;32.51;33.19
58367;BME280;57745;42.524;12.052;2023-08-21T12:12:00;96739.38;;;32.45;33.27
58367;BME280;57745;42.524;12.052;2023-08-21T12:14:27;96737.06;;;32.59;33.94
58367;BME280;57745;42.524;12.052;2023-08-21T12:16:53;96734.88;;;32.50;33.44
58367;BME280;57745;42.524;12.052;2023-08-21T12:19:19;96730.91;;;32.53;33.34
58367;BME280;57745;42.524;12.052;2023-08-21T12:21:45;96731.50;;;32.52;33.02
58367;BME280;57745;42.524;12.052;2023-08-21T12:24:10;96730.00;;;32.51;33.51
58367;BME280;57745;42.524;12.052;2023-08-21T12:26:35;96730.53;;;32.57;33.55
58367;BME280;57745;42.524;12.052;2023-08-21T12:29:01;96729.59;;;32.54;33.30
58367;BME280;57745;42.524;12.052;2023-08-21T12:31:28;96727.34;;;32.53;32.92
58367;BME280;57745;42.524;12.052;2023-08-21T12:33:53;96720.84;;;32.42;33.13
58367;BME280;57745;42.524;12.052;2023-08-21T12:36:18;96710.94;;;32.41;33.18
58367;BME280;57745;42.524;12.052;2023-08-21T12:38:44;96717.84;;;32.48;33.50
58367;BME280;57745;42.524;12.052;2023-08-21T12:41:10;96703.06;;;32.47;33.49
58367;BME280;57745;42.524;12.052;2023-08-21T12:43:35;96717.41;;;32.59;33.56
58367;BME280;57745;42.524;12.052;2023-08-21T12:46:01;96712.00;;;32.54;33.15
58367;BME280;57745;42.524;12.052;2023-08-21T12:48:26;96707.88;;;32.55;33.25
58367;BME280;57745;42.524;12.052;2023-08-21T12:50:51;96697.81;;;32.52;32.90